Time;durP1;ratioP1;P1;durP2;ratioP2;P2;SDS_P1;SDS_P2;PMS_P1;PMS_P2;Temp;Humidity;BMP_temperature;BMP_pressure;BME280_temperature;BME280_humidity;BME280_pressure;Samples;Min_cycle;Max_cycle;Signal;HPM_P1;HPM_P2
2021/06/23 00:01:29;;;;;;;10.50;5.70;;;;;;;;;;5134050;27;20533;-61
2021/06/23 00:03:56;;;;;;;10.83;6.70;;;;;;;;;;5134325;27;20441;-61
2021/06/23 00:06:23;;;;;;;9.50;6.00;;;;;;;;;;5134135;27;20448;-62
2021/06/23 00:08:51;;;;;;;11.47;6.70;;;;;;;;;;5134066;27;20501;-61
2021/06/23 00:11:18;;;;;;;8.10;6.30;;;;;;;;;;5134194;27;20490;-61
2021/06/23 00:13:49;;;;;;;9.40;5.97;;;;;;;;;;5134215;27;20618;-61
2021/06/23 00:16:16;;;;;;;7.97;6.10;;;;;;;;;;5133934;27;20425;-61
2021/06/23 00:18:43;;;;;;;11.57;6.00;;;;;;;;;;5133945;27;20831;-61
2021/06/23 00:21:11;;;;;;;8.13;6.63;;;;;;;;;;5133932;27;20457;-61
2021/06/23 00:23:38;;;;;;;8.63;5.60;;;;;;;;;;5136344;27;20447;-61
2021/06/23 00:26:05;;;;;;;14.93;6.60;;;;;;;;;;5138221;27;20440;-61
2021/06/23 00:28:32;;;;;;;12.43;6.17;;;;;;;;;;5139084;27;20497;-61
2021/06/23 00:31:01;;;;;;;10.90;6.57;;;;;;;;;;5138293;27;20460;-59
2021/06/23 00:33:32;;;;;;;11.90;7.17;;;;;;;;;;5138255;27;20475;-61
2021/06/23 00:35:59;;;;;;;11.30;6.40;;;;;;;;;;5137984;27;20997;-61
2021/06/23 00:38:28;;;;;;;15.63;6.87;;;;;;;;;;5138353;27;20799;-61
2021/06/23 00:40:55;;;;;;;11.73;6.57;;;;;;;;;;5137817;27;20464;-61
2021/06/23 00:43:23;;;;;;;8.13;6.47;;;;;;;;;;5137850;27;20440;-61
2021/06/23 00:45:50;;;;;;;7.80;6.97;;;;;;;;;;5137833;27;20504;-61
2021/06/23 00:48:26;;;;;;;7.43;6.73;;;;;;;;;;5138130;27;20444;-60
2021/06/23 00:50:53;;;;;;;13.13;7.43;;;;;;;;;;5137739;27;20528;-61
2021/06/23 00:53:21;;;;;;;11.10;7.27;;;;;;;;;;5137645;27;20524;-60
2021/06/23 00:55:52;;;;;;;11.50;7.33;;;;;;;;;;5137674;27;20441;-60
2021/06/23 00:58:20;;;;;;;8.13;7.00;;;;;;;;;;5138041;27;20797;-62
2021/06/23 01:00:47;;;;;;;9.70;7.50;;;;;;;;;;5137554;27;20467;-60
2021/06/23 01:03:14;;;;;;;12.47;7.03;;;;;;;;;;5137522;27;20828;-60
2021/06/23 01:05:43;;;;;;;18.77;10.20;;;;;;;;;;5137706;27;20440;-60
2021/06/23 01:08:11;;;;;;;9.93;8.23;;;;;;;;;;5137641;27;20486;-60
2021/06/23 01:10:38;;;;;;;24.30;19.43;;;;;;;;;;5137263;27;20505;-59
2021/06/23 01:13:18;;;;;;;15.57;13.90;;;;;;;;;;5137257;27;20536;-60
2021/06/23 01:15:48;;;;;;;17.97;12.27;;;;;;;;;;5137659;27;20429;-61
2021/06/23 01:18:15;;;;;;;14.60;9.13;;;;;;;;;;5137845;27;20444;-60
2021/06/23 01:20:45;;;;;;;7.33;6.50;;;;;;;;;;5137560;27;20857;-60
2021/06/23 01:23:14;;;;;;;10.57;7.37;;;;;;;;;;5137108;27;20493;-61
2021/06/23 01:25:42;;;;;;;10.03;5.93;;;;;;;;;;5136993;27;20451;-60
2021/06/23 01:28:09;;;;;;;16.17;5.60;;;;;;;;;;5139200;27;20517;-60
2021/06/23 01:30:37;;;;;;;5.97;5.37;;;;;;;;;;5139736;27;20464;-60
2021/06/23 01:33:05;;;;;;;7.90;5.30;;;;;;;;;;5139420;27;20528;-61
2021/06/23 01:35:32;;;;;;;6.40;5.77;;;;;;;;;;5138432;27;20936;-62
2021/06/23 01:38:02;;;;;;;10.33;6.30;;;;;;;;;;5137445;27;20456;-61
2021/06/23 01:40:30;;;;;;;10.73;6.50;;;;;;;;;;5137500;27;20521;-61
2021/06/23 01:42:58;;;;;;;10.13;5.83;;;;;;;;;;5137170;27;20444;-61
2021/06/23 01:45:25;;;;;;;9.07;4.87;;;;;;;;;;5137041;27;20449;-61
2021/06/23 01:47:52;;;;;;;11.93;5.93;;;;;;;;;;5137328;27;20444;-61
2021/06/23 01:50:22;;;;;;;12.63;5.80;;;;;;;;;;5136934;27;20556;-61
2021/06/23 01:52:49;;;;;;;10.17;5.67;;;;;;;;;;5137123;27;20493;-61
2021/06/23 01:55:28;;;;;;;13.17;6.13;;;;;;;;;;5137045;27;20436;-61
2021/06/23 01:58:00;;;;;;;9.93;6.10;;;;;;;;;;5136783;27;20428;-61
2021/06/23 02:00:31;;;;;;;9.13;5.67;;;;;;;;;;5136522;27;20513;-61
2021/06/23 02:03:03;;;;;;;10.07;5.03;;;;;;;;;;5136818;27;20478;-61
2021/06/23 02:05:35;;;;;;;8.43;5.13;;;;;;;;;;5137035;27;20481;-61
2021/06/23 02:08:07;;;;;;;9.90;5.27;;;;;;;;;;5136657;27;20485;-61
2021/06/23 02:10:55;;;;;;;10.07;5.33;;;;;;;;;;5136850;27;20867;-60
2021/06/23 02:13:43;;;;;;;12.60;4.70;;;;;;;;;;5132148;27;20478;-61
2021/06/23 02:16:13;;;;;;;10.40;5.30;;;;;;;;;;5136595;27;20888;-61
2021/06/23 02:18:41;;;;;;;7.03;4.60;;;;;;;;;;5136727;27;20445;-61
2021/06/23 02:21:08;;;;;;;12.17;6.43;;;;;;;;;;5136822;27;20461;-61
2021/06/23 02:23:37;;;;;;;10.63;4.67;;;;;;;;;;5136285;27;20485;-61
2021/06/23 02:26:04;;;;;;;7.80;4.17;;;;;;;;;;5136271;27;20943;-61
2021/06/23 02:28:32;;;;;;;11.50;4.93;;;;;;;;;;5136518;27;20441;-61
2021/06/23 02:30:59;;;;;;;6.93;5.10;;;;;;;;;;5136530;27;20998;-61
2021/06/23 02:33:29;;;;;;;8.10;5.93;;;;;;;;;;5136700;27;20480;-60
2021/06/23 02:35:56;;;;;;;9.30;5.23;;;;;;;;;;5136326;27;21012;-60
2021/06/23 02:38:24;;;;;;;11.97;5.70;;;;;;;;;;5136357;27;20451;-60
2021/06/23 02:40:52;;;;;;;7.97;5.50;;;;;;;;;;5136602;27;20469;-60
2021/06/23 02:43:20;;;;;;;8.03;5.47;;;;;;;;;;5136289;27;20995;-60
2021/06/23 02:45:47;;;;;;;8.40;5.20;;;;;;;;;;5135984;27;20531;-60
2021/06/23 02:48:14;;;;;;;6.53;5.13;;;;;;;;;;5134695;27;20497;-61
2021/06/23 02:50:48;;;;;;;6.40;4.50;;;;;;;;;;5135362;27;20469;-61
2021/06/23 02:53:16;;;;;;;11.27;5.40;;;;;;;;;;5135420;27;20421;-61
2021/06/23 02:55:44;;;;;;;9.97;4.80;;;;;;;;;;5135663;27;20445;-61
2021/06/23 02:58:12;;;;;;;12.70;4.70;;;;;;;;;;5135678;27;20440;-61
2021/06/23 03:00:40;;;;;;;9.93;4.30;;;;;;;;;;5135844;27;20464;-60
2021/06/23 03:03:07;;;;;;;6.03;4.70;;;;;;;;;;5135744;27;20447;-61
2021/06/23 03:05:34;;;;;;;5.17;4.40;;;;;;;;;;5135438;27;20992;-59
2021/06/23 03:08:03;;;;;;;8.93;4.27;;;;;;;;;;5135791;27;20489;-61
2021/06/23 03:10:30;;;;;;;7.00;4.40;;;;;;;;;;5135072;27;20529;-61
2021/06/23 03:12:57;;;;;;;8.70;4.90;;;;;;;;;;5135273;27;20497;-61
2021/06/23 03:15:24;;;;;;;13.63;5.33;;;;;;;;;;5135371;27;20498;-61
2021/06/23 03:17:52;;;;;;;8.87;5.33;;;;;;;;;;5135503;27;20444;-60
2021/06/23 03:20:19;;;;;;;10.70;5.60;;;;;;;;;;5135730;27;20517;-61
2021/06/23 03:22:46;;;;;;;5.83;4.70;;;;;;;;;;5140404;27;20443;-61
2021/06/23 03:25:15;;;;;;;12.07;5.50;;;;;;;;;;5141358;27;20830;-60
2021/06/23 03:27:43;;;;;;;15.57;5.67;;;;;;;;;;5141129;27;20920;-60
2021/06/23 03:30:10;;;;;;;7.47;5.70;;;;;;;;;;5141516;27;20461;-61
2021/06/23 03:32:38;;;;;;;7.53;5.40;;;;;;;;;;5135897;27;20444;-61
2021/06/23 03:35:05;;;;;;;13.47;5.57;;;;;;;;;;5135084;27;20525;-61
2021/06/23 03:37:32;;;;;;;10.70;5.10;;;;;;;;;;5134931;27;20448;-61
2021/06/23 03:40:00;;;;;;;9.93;6.53;;;;;;;;;;5134774;27;20456;-61
2021/06/23 03:42:28;;;;;;;8.77;6.10;;;;;;;;;;5134762;27;20452;-61
2021/06/23 03:44:56;;;;;;;8.40;5.37;;;;;;;;;;5134466;27;20939;-61
2021/06/23 03:47:23;;;;;;;8.70;5.87;;;;;;;;;;5134521;27;20500;-61
2021/06/23 03:49:50;;;;;;;6.30;5.80;;;;;;;;;;5134423;27;20476;-61
2021/06/23 03:52:17;;;;;;;8.13;5.80;;;;;;;;;;5134233;27;20456;-61
2021/06/23 03:54:45;;;;;;;12.03;6.70;;;;;;;;;;5134434;27;20476;-61
2021/06/23 03:57:12;;;;;;;16.07;6.00;;;;;;;;;;5134878;27;20470;-61
2021/06/23 03:59:41;;;;;;;11.70;6.57;;;;;;;;;;5134163;27;20967;-61
2021/06/23 04:02:08;;;;;;;6.93;5.40;;;;;;;;;;5134583;27;20449;-60
2021/06/23 04:04:36;;;;;;;12.53;5.50;;;;;;;;;;5134782;27;20436;-61
2021/06/23 04:08:15;;;;;;;10.63;6.03;;;;;;;;;;5092046;27;20611;-61
2021/06/23 04:10:42;;;;;;;10.23;5.33;;;;;;;;;;5091134;28;20528;-60
2021/06/23 04:13:10;;;;;;;12.37;6.80;;;;;;;;;;5091260;28;20439;-60
2021/06/23 04:15:37;;;;;;;10.50;5.20;;;;;;;;;;5091529;28;20503;-60
2021/06/23 04:18:04;;;;;;;8.70;5.10;;;;;;;;;;5090984;28;20443;-61
2021/06/23 04:20:32;;;;;;;11.83;5.10;;;;;;;;;;5090440;28;20512;-61
2021/06/23 04:22:59;;;;;;;7.60;4.50;;;;;;;;;;5090373;28;20454;-61
2021/06/23 04:25:27;;;;;;;9.63;5.63;;;;;;;;;;5091254;28;20519;-61
2021/06/23 04:27:55;;;;;;;12.30;5.30;;;;;;;;;;5090579;28;20501;-62
2021/06/23 04:30:22;;;;;;;16.20;7.93;;;;;;;;;;5090536;28;20520;-60
2021/06/23 04:32:50;;;;;;;8.87;5.33;;;;;;;;;;5090571;28;20523;-61
2021/06/23 04:35:17;;;;;;;8.97;5.10;;;;;;;;;;5090494;28;20443;-61
2021/06/23 04:37:45;;;;;;;9.10;5.10;;;;;;;;;;5090842;28;20469;-60
2021/06/23 04:40:14;;;;;;;10.40;5.50;;;;;;;;;;5090042;28;20978;-61
2021/06/23 04:42:43;;;;;;;5.20;4.60;;;;;;;;;;5090567;28;20434;-59
2021/06/23 04:45:12;;;;;;;9.10;4.80;;;;;;;;;;5089958;28;20442;-61
2021/06/23 04:47:40;;;;;;;5.87;4.40;;;;;;;;;;5090129;28;20527;-60
2021/06/23 04:50:08;;;;;;;5.67;4.80;;;;;;;;;;5098864;22;20501;-57
2021/06/23 04:52:35;;;;;;;10.10;5.33;;;;;;;;;;5049883;28;20510;-56
2021/06/23 04:55:02;;;;;;;7.23;5.10;;;;;;;;;;5049750;28;20498;-57
2021/06/23 04:57:30;;;;;;;11.70;4.93;;;;;;;;;;5049936;28;20447;-56
2021/06/23 04:59:58;;;;;;;8.70;4.17;;;;;;;;;;5049847;28;20833;-57
2021/06/23 05:02:25;;;;;;;10.50;4.47;;;;;;;;;;5049593;28;20456;-57
2021/06/23 05:04:53;;;;;;;6.93;4.50;;;;;;;;;;5050067;28;20916;-57
2021/06/23 05:07:20;;;;;;;8.53;4.73;;;;;;;;;;5049410;28;20575;-57
2021/06/23 05:09:48;;;;;;;8.00;3.87;;;;;;;;;;5049172;28;20860;-58
2021/06/23 05:12:17;;;;;;;7.73;3.70;;;;;;;;;;5049051;28;20443;-57
2021/06/23 05:14:44;;;;;;;5.93;3.67;;;;;;;;;;5049242;28;20599;-56
2021/06/23 05:17:13;;;;;;;7.10;4.03;;;;;;;;;;5048826;28;20445;-57
2021/06/23 05:19:40;;;;;;;9.97;4.70;;;;;;;;;;5036058;28;20457;-56
2021/06/23 05:22:10;;;;;;;10.70;4.07;;;;;;;;;;5035963;28;20491;-57
2021/06/23 05:24:38;;;;;;;6.67;4.23;;;;;;;;;;5036287;28;20503;-58
2021/06/23 05:27:06;;;;;;;12.90;5.60;;;;;;;;;;5035912;28;20564;-57
2021/06/23 05:29:33;;;;;;;9.20;4.30;;;;;;;;;;5035583;28;21007;-57
2021/06/23 05:32:01;;;;;;;7.80;4.80;;;;;;;;;;5035379;28;20469;-57
2021/06/23 05:34:29;;;;;;;6.67;5.20;;;;;;;;;;5035611;28;20445;-57
2021/06/23 05:36:57;;;;;;;10.73;5.53;;;;;;;;;;5035538;28;20548;-57
2021/06/23 05:39:24;;;;;;;16.40;5.80;;;;;;;;;;5035619;28;20441;-58
2021/06/23 05:41:51;;;;;;;10.73;5.03;;;;;;;;;;5035447;28;20473;-57
2021/06/23 05:44:19;;;;;;;8.30;4.70;;;;;;;;;;5036007;28;20507;-57
2021/06/23 05:46:46;;;;;;;9.57;5.00;;;;;;;;;;5034919;28;20481;-57
2021/06/23 05:49:13;;;;;;;8.10;4.87;;;;;;;;;;5035329;28;20503;-57
2021/06/23 05:51:42;;;;;;;10.10;4.83;;;;;;;;;;5034986;28;20485;-58
2021/06/23 05:54:09;;;;;;;8.03;4.57;;;;;;;;;;5035200;28;20503;-58
2021/06/23 05:56:37;;;;;;;11.10;4.50;;;;;;;;;;5035189;28;20483;-58
2021/06/23 05:59:04;;;;;;;7.57;5.00;;;;;;;;;;5034980;28;20449;-58
2021/06/23 06:01:31;;;;;;;9.57;4.30;;;;;;;;;;5033847;28;20618;-58
2021/06/23 06:03:59;;;;;;;7.10;3.70;;;;;;;;;;5035140;28;20861;-58
2021/06/23 06:06:26;;;;;;;8.60;3.63;;;;;;;;;;5034904;28;20582;-58
2021/06/23 06:08:55;;;;;;;8.00;5.07;;;;;;;;;;5035009;28;20511;-58
2021/06/23 06:11:22;;;;;;;9.23;4.50;;;;;;;;;;5034701;28;20469;-58
2021/06/23 06:13:49;;;;;;;6.83;4.73;;;;;;;;;;5034708;28;20449;-58
2021/06/23 06:16:16;;;;;;;9.03;4.50;;;;;;;;;;5035028;28;20530;-57
2021/06/23 06:18:46;;;;;;;7.97;4.70;;;;;;;;;;5034389;28;20488;-58
2021/06/23 06:21:14;;;;;;;8.97;4.70;;;;;;;;;;5034152;28;20522;-57
2021/06/23 06:23:41;;;;;;;9.57;4.90;;;;;;;;;;5034326;28;20449;-57
2021/06/23 06:26:10;;;;;;;9.77;5.20;;;;;;;;;;5034570;28;20457;-57
2021/06/23 06:28:39;;;;;;;7.00;4.70;;;;;;;;;;5034186;28;20481;-56
2021/06/23 06:31:06;;;;;;;11.57;4.57;;;;;;;;;;5033103;28;20908;-57
2021/06/23 06:33:33;;;;;;;6.50;4.30;;;;;;;;;;5033906;28;20453;-58
2021/06/23 06:36:01;;;;;;;12.60;4.80;;;;;;;;;;5034204;28;20495;-56
2021/06/23 06:38:28;;;;;;;6.67;4.17;;;;;;;;;;5034359;28;20449;-57
2021/06/23 06:40:55;;;;;;;9.40;3.93;;;;;;;;;;5034193;28;20466;-58
2021/06/23 06:43:24;;;;;;;10.70;4.40;;;;;;;;;;5034216;28;20498;-58
2021/06/23 06:45:52;;;;;;;7.80;4.10;;;;;;;;;;5034466;28;20445;-57
2021/06/23 06:48:21;;;;;;;9.80;4.53;;;;;;;;;;5034113;28;20531;-58
2021/06/23 06:50:48;;;;;;;9.60;4.50;;;;;;;;;;5034007;28;20487;-57
2021/06/23 06:53:15;;;;;;;6.50;4.90;;;;;;;;;;5034934;28;20797;-57
2021/06/23 06:55:42;;;;;;;15.20;7.27;;;;;;;;;;5034064;28;20455;-57
2021/06/23 06:58:10;;;;;;;17.47;7.17;;;;;;;;;;5033936;28;20516;-56
2021/06/23 07:00:39;;;;;;;14.17;6.70;;;;;;;;;;5033688;28;20472;-57
2021/06/23 07:03:07;;;;;;;58.53;15.03;;;;;;;;;;5033563;28;21035;-57
2021/06/23 07:05:34;;;;;;;13.77;5.63;;;;;;;;;;5033751;28;20506;-56
2021/06/23 07:08:01;;;;;;;5.70;4.17;;;;;;;;;;5033611;28;20481;-58
2021/06/23 07:10:29;;;;;;;10.60;4.17;;;;;;;;;;5033688;28;20473;-58
2021/06/23 07:12:56;;;;;;;9.27;4.73;;;;;;;;;;5033844;28;20876;-58
2021/06/23 07:15:23;;;;;;;7.53;4.07;;;;;;;;;;5033364;28;21003;-57
2021/06/23 07:17:52;;;;;;;10.03;4.37;;;;;;;;;;5033244;28;20987;-57
2021/06/23 07:20:19;;;;;;;11.57;4.00;;;;;;;;;;5033330;28;20527;-58
2021/06/23 07:22:47;;;;;;;10.07;3.80;;;;;;;;;;5033302;28;20492;-59
2021/06/23 07:25:14;;;;;;;9.43;3.83;;;;;;;;;;5034321;28;20460;-58
2021/06/23 07:27:42;;;;;;;11.63;4.67;;;;;;;;;;5033518;28;20492;-57
2021/06/23 07:30:10;;;;;;;8.83;4.60;;;;;;;;;;5033057;28;20468;-57
2021/06/23 07:32:44;;;;;;;12.00;3.90;;;;;;;;;;5033003;28;20816;-56
2021/06/23 07:37:49;;;;;;;13.20;4.27;;;;;;;;;;5033489;28;20409;-57
2021/06/23 07:40:18;;;;;;;9.83;4.10;;;;;;;;;;5033414;28;20460;-56
2021/06/23 07:42:45;;;;;;;6.03;3.70;;;;;;;;;;5032698;28;20502;-55
2021/06/23 07:45:13;;;;;;;11.20;3.57;;;;;;;;;;5032882;28;20527;-55
2021/06/23 07:47:41;;;;;;;9.53;4.73;;;;;;;;;;5032903;28;20592;-56
2021/06/23 07:50:10;;;;;;;6.00;4.13;;;;;;;;;;5032498;28;20491;-56
2021/06/23 07:52:46;;;;;;;6.47;4.10;;;;;;;;;;5032678;28;20802;-56
2021/06/23 07:55:41;;;;;;;9.20;4.57;;;;;;;;;;5032717;28;20936;-57
2021/06/23 08:09:12;;;;;;;6.23;4.97;;;;;;;;;;5032510;28;20504;-53
2021/06/23 08:11:41;;;;;;;9.73;4.53;;;;;;;;;;5032420;28;20500;-55
2021/06/23 08:14:08;;;;;;;8.00;4.33;;;;;;;;;;5032910;28;20507;-56
2021/06/23 08:16:37;;;;;;;7.20;4.73;;;;;;;;;;5032552;28;20503;-55
2021/06/23 08:19:05;;;;;;;6.97;4.60;;;;;;;;;;5032764;28;20515;-55
2021/06/23 08:21:32;;;;;;;16.47;6.67;;;;;;;;;;5032223;28;20461;-55
2021/06/23 08:23:59;;;;;;;11.80;5.60;;;;;;;;;;5032351;28;20503;-55
2021/06/23 08:26:28;;;;;;;8.67;5.80;;;;;;;;;;5032872;28;20445;-55
2021/06/23 08:28:55;;;;;;;8.40;4.67;;;;;;;;;;5032723;28;20481;-56
2021/06/23 08:31:23;;;;;;;7.90;5.23;;;;;;;;;;5032731;28;20469;-55
2021/06/23 08:33:53;;;;;;;11.47;5.43;;;;;;;;;;5033635;28;20754;-55
2021/06/23 08:36:20;;;;;;;8.63;6.00;;;;;;;;;;5032441;28;20445;-55
2021/06/23 08:38:47;;;;;;;8.93;5.20;;;;;;;;;;5033098;28;20441;-55
2021/06/23 08:41:15;;;;;;;7.40;5.17;;;;;;;;;;5032339;28;20826;-56
2021/06/23 08:43:43;;;;;;;8.67;5.40;;;;;;;;;;5032162;28;20444;-56
2021/06/23 08:46:10;;;;;;;11.90;5.60;;;;;;;;;;5032634;28;20449;-52
2021/06/23 08:48:39;;;;;;;10.40;5.70;;;;;;;;;;5032317;28;20481;-57
2021/06/23 08:51:07;;;;;;;6.77;5.10;;;;;;;;;;5032004;28;20485;-55
2021/06/23 08:53:35;;;;;;;6.67;5.50;;;;;;;;;;5033414;28;20996;-56
2021/06/23 08:56:04;;;;;;;11.90;5.80;;;;;;;;;;5036317;28;20528;-56
2021/06/23 08:58:31;;;;;;;12.77;6.50;;;;;;;;;;5035858;28;20542;-56
2021/06/23 09:01:00;;;;;;;7.13;5.60;;;;;;;;;;5035500;28;20986;-57
2021/06/23 09:03:27;;;;;;;8.43;6.00;;;;;;;;;;5036312;28;20449;-56
2021/06/23 09:05:55;;;;;;;8.50;5.77;;;;;;;;;;5035829;28;20940;-57
2021/06/23 09:08:33;;;;;;;9.53;5.97;;;;;;;;;;5036202;28;20487;-56
2021/06/23 09:11:02;;;;;;;12.00;6.43;;;;;;;;;;5036001;28;20462;-56
2021/06/23 09:13:30;;;;;;;10.10;5.80;;;;;;;;;;5036576;28;20445;-54
2021/06/23 09:15:58;;;;;;;6.77;6.07;;;;;;;;;;5035131;28;20860;-55
2021/06/23 09:18:28;;;;;;;8.40;6.60;;;;;;;;;;5035438;28;20502;-55
2021/06/23 09:20:58;;;;;;;6.53;4.80;;;;;;;;;;5035537;28;20468;-56
2021/06/23 09:23:38;;;;;;;10.40;4.53;;;;;;;;;;5035928;28;20540;-56
2021/06/23 09:26:09;;;;;;;11.53;4.57;;;;;;;;;;5035560;28;20449;-53
2021/06/23 09:28:36;;;;;;;8.10;5.40;;;;;;;;;;5035256;28;20483;-53
2021/06/23 09:31:06;;;;;;;5.83;4.83;;;;;;;;;;5035222;28;20480;-55
2021/06/23 09:33:34;;;;;;;11.37;5.60;;;;;;;;;;5035315;28;20554;-52
2021/06/23 09:36:03;;;;;;;7.83;6.23;;;;;;;;;;5034737;28;20507;-54
2021/06/23 09:38:31;;;;;;;10.07;6.07;;;;;;;;;;5035400;28;20441;-54
2021/06/23 09:40:59;;;;;;;6.30;4.90;;;;;;;;;;5035235;28;20468;-52
2021/06/23 09:43:35;;;;;;;9.83;6.27;;;;;;;;;;5034903;28;20952;-55
2021/06/23 09:46:13;;;;;;;7.40;6.00;;;;;;;;;;5035452;28;20433;-55
2021/06/23 09:48:41;;;;;;;8.57;5.50;;;;;;;;;;5035079;28;20523;-56
2021/06/23 09:51:12;;;;;;;6.97;5.50;;;;;;;;;;5034908;28;20514;-57
2021/06/23 09:53:40;;;;;;;6.90;5.63;;;;;;;;;;5035075;28;20494;-56
2021/06/23 09:56:22;;;;;;;8.60;6.10;;;;;;;;;;5034478;28;20985;-57
2021/06/23 09:58:52;;;;;;;9.50;5.37;;;;;;;;;;5034958;28;20486;-56
2021/06/23 10:01:19;;;;;;;8.03;5.50;;;;;;;;;;5035297;28;20602;-56
2021/06/23 10:04:01;;;;;;;6.80;4.73;;;;;;;;;;5034847;28;20449;-57
2021/06/23 10:06:29;;;;;;;8.47;5.73;;;;;;;;;;5034389;28;20889;-56
2021/06/23 10:09:19;;;;;;;6.93;5.20;;;;;;;;;;5034530;28;20481;-57
2021/06/23 10:11:47;;;;;;;8.13;5.77;;;;;;;;;;5035027;28;20476;-57
2021/06/23 10:14:14;;;;;;;8.57;5.90;;;;;;;;;;5034547;28;20442;-56
2021/06/23 10:16:42;;;;;;;7.50;5.90;;;;;;;;;;5034230;28;20509;-57
2021/06/23 10:19:10;;;;;;;5.93;5.27;;;;;;;;;;5034419;28;20442;-56
2021/06/23 10:21:38;;;;;;;10.87;5.70;;;;;;;;;;5034791;28;20822;-57
2021/06/23 10:24:09;;;;;;;10.03;6.23;;;;;;;;;;5034232;28;20444;-56
2021/06/23 10:26:40;;;;;;;13.93;6.30;;;;;;;;;;5033999;28;20518;-57
2021/06/23 10:29:09;;;;;;;8.80;6.20;;;;;;;;;;5034006;28;20554;-57
2021/06/23 10:31:37;;;;;;;11.60;6.77;;;;;;;;;;5034079;28;20549;-56
2021/06/23 10:34:05;;;;;;;9.93;5.70;;;;;;;;;;5034156;28;20450;-56
2021/06/23 10:36:33;;;;;;;7.10;5.23;;;;;;;;;;5033384;28;20466;-56
2021/06/23 10:39:01;;;;;;;9.53;5.73;;;;;;;;;;5034085;28;20454;-54
2021/06/23 10:41:28;;;;;;;10.63;5.33;;;;;;;;;;5033396;28;20555;-56
2021/06/23 10:44:10;;;;;;;6.50;5.20;;;;;;;;;;5033995;28;20449;-54
2021/06/23 10:46:41;;;;;;;7.30;6.40;;;;;;;;;;5031758;28;20937;-56
2021/06/23 10:49:08;;;;;;;10.80;6.80;;;;;;;;;;5033366;28;20480;-56
2021/06/23 10:51:36;;;;;;;7.57;5.53;;;;;;;;;;5033317;28;20484;-55
2021/06/23 10:54:28;;;;;;;7.63;5.50;;;;;;;;;;5035169;28;20452;-57
2021/06/23 10:56:56;;;;;;;11.70;5.13;;;;;;;;;;5033496;28;20536;-56
2021/06/23 10:59:33;;;;;;;6.47;5.87;;;;;;;;;;5033328;28;20449;-55
2021/06/23 11:02:10;;;;;;;9.57;5.90;;;;;;;;;;5033258;28;20460;-57
2021/06/23 11:04:52;;;;;;;9.77;5.90;;;;;;;;;;5033784;28;20526;-57
2021/06/23 11:07:34;;;;;;;10.67;5.70;;;;;;;;;;5033871;28;20819;-56
2021/06/23 11:10:16;;;;;;;7.70;5.73;;;;;;;;;;5033950;28;20493;-56
2021/06/23 11:12:49;;;;;;;8.23;6.40;;;;;;;;;;5033726;28;20436;-57
2021/06/23 11:15:18;;;;;;;7.13;5.53;;;;;;;;;;5033905;28;20500;-56
2021/06/23 11:17:45;;;;;;;7.33;6.50;;;;;;;;;;5033180;28;20512;-57
2021/06/23 11:20:28;;;;;;;8.27;6.70;;;;;;;;;;5032054;28;20467;-57
2021/06/23 11:22:56;;;;;;;11.67;7.07;;;;;;;;;;5032796;28;20821;-56
2021/06/23 11:25:24;;;;;;;7.60;6.80;;;;;;;;;;5032974;28;20872;-55
2021/06/23 11:28:06;;;;;;;12.80;7.00;;;;;;;;;;5033335;28;20509;-55
2021/06/23 11:30:35;;;;;;;7.83;6.17;;;;;;;;;;5033488;28;20521;-56
2021/06/23 11:33:30;;;;;;;7.00;6.30;;;;;;;;;;5032786;28;20811;-55
2021/06/23 11:35:58;;;;;;;9.20;6.60;;;;;;;;;;5033049;28;20443;-56
2021/06/23 11:38:26;;;;;;;9.43;7.00;;;;;;;;;;5033512;28;20452;-55
2021/06/23 11:40:54;;;;;;;7.83;7.03;;;;;;;;;;5033466;28;20482;-56
2021/06/23 11:43:21;;;;;;;11.50;8.20;;;;;;;;;;5033432;28;20463;-54
2021/06/23 11:45:50;;;;;;;11.63;7.30;;;;;;;;;;5033626;28;20453;-55
2021/06/23 11:48:18;;;;;;;12.17;8.90;;;;;;;;;;5033727;28;20512;-55
2021/06/23 11:50:46;;;;;;;9.53;8.53;;;;;;;;;;5032870;28;20473;-57
2021/06/23 11:53:14;;;;;;;10.20;8.23;;;;;;;;;;5033179;28;20500;-55
2021/06/23 11:55:42;;;;;;;9.73;8.67;;;;;;;;;;5033027;28;20511;-57
2021/06/23 11:58:09;;;;;;;9.20;7.63;;;;;;;;;;5032684;28;20530;-56
2021/06/23 12:00:38;;;;;;;11.70;8.60;;;;;;;;;;5032897;28;20467;-55
2021/06/23 12:03:07;;;;;;;8.93;8.20;;;;;;;;;;5033268;28;20516;-55
2021/06/23 12:05:35;;;;;;;14.60;8.83;;;;;;;;;;5032519;28;20450;-56
2021/06/23 12:08:02;;;;;;;10.63;8.70;;;;;;;;;;5032686;28;20505;-55
2021/06/23 12:10:30;;;;;;;11.07;9.10;;;;;;;;;;5032655;28;20488;-57
2021/06/23 12:12:58;;;;;;;10.90;8.97;;;;;;;;;;5033140;28;20505;-57
2021/06/23 12:15:26;;;;;;;9.53;8.63;;;;;;;;;;5032639;28;20935;-56
2021/06/23 12:17:54;;;;;;;10.70;9.47;;;;;;;;;;5032708;28;20848;-57
2021/06/23 12:20:23;;;;;;;10.60;9.00;;;;;;;;;;5032885;28;20821;-56
2021/06/23 12:22:59;;;;;;;11.13;10.13;;;;;;;;;;5032600;28;20862;-55
2021/06/23 12:25:27;;;;;;;11.87;10.40;;;;;;;;;;5032311;28;20493;-57
2021/06/23 12:27:55;;;;;;;11.87;9.83;;;;;;;;;;5032774;28;20449;-57
2021/06/23 12:30:24;;;;;;;9.77;8.77;;;;;;;;;;5036547;28;20511;-56
2021/06/23 12:32:51;;;;;;;12.20;10.17;;;;;;;;;;5036490;28;20510;-56
2021/06/23 12:35:19;;;;;;;12.27;10.80;;;;;;;;;;5036420;28;20860;-56
2021/06/23 12:37:47;;;;;;;13.00;9.60;;;;;;;;;;5036513;28;20510;-56
2021/06/23 12:40:15;;;;;;;12.93;11.17;;;;;;;;;;5036158;28;20461;-58
2021/06/23 12:42:42;;;;;;;11.80;10.70;;;;;;;;;;5035870;28;20491;-56
2021/06/23 12:45:10;;;;;;;11.27;10.27;;;;;;;;;;5036433;28;20448;-57
2021/06/23 12:47:37;;;;;;;11.97;10.77;;;;;;;;;;5035955;28;20445;-56
2021/06/23 12:50:06;;;;;;;10.90;9.80;;;;;;;;;;5035672;28;20485;-56
2021/06/23 12:52:33;;;;;;;11.87;10.07;;;;;;;;;;5036525;28;20831;-56
2021/06/23 12:55:02;;;;;;;10.53;8.70;;;;;;;;;;5035964;28;20485;-55
2021/06/23 12:57:29;;;;;;;12.03;9.77;;;;;;;;;;5036323;28;20495;-56
2021/06/23 12:59:57;;;;;;;10.60;9.33;;;;;;;;;;5036025;28;20460;-56
2021/06/23 13:02:24;;;;;;;10.80;8.93;;;;;;;;;;5036252;28;20519;-57
2021/06/23 13:04:51;;;;;;;10.17;9.17;;;;;;;;;;5036666;28;20504;-55
2021/06/23 13:07:18;;;;;;;10.97;9.87;;;;;;;;;;5036139;28;20510;-57
2021/06/23 13:09:46;;;;;;;12.33;11.37;;;;;;;;;;5035913;28;20481;-57
2021/06/23 13:12:14;;;;;;;10.70;9.80;;;;;;;;;;5036036;28;20524;-57
2021/06/23 13:14:42;;;;;;;10.87;9.87;;;;;;;;;;5035331;28;20436;-57
2021/06/23 13:17:10;;;;;;;13.40;10.57;;;;;;;;;;5036210;28;20512;-57
2021/06/23 13:19:37;;;;;;;11.37;9.77;;;;;;;;;;5035568;28;20499;-57
2021/06/23 13:22:05;;;;;;;11.10;9.87;;;;;;;;;;5035698;28;20453;-56
2021/06/23 13:24:33;;;;;;;11.23;9.07;;;;;;;;;;5035735;28;20486;-57
2021/06/23 13:27:01;;;;;;;14.37;10.10;;;;;;;;;;5035293;28;20445;-57
2021/06/23 13:29:30;;;;;;;12.47;10.00;;;;;;;;;;5035506;28;20513;-57
2021/06/23 13:31:57;;;;;;;8.90;8.00;;;;;;;;;;5035151;28;20548;-57
2021/06/23 13:34:25;;;;;;;9.00;7.90;;;;;;;;;;5035588;28;20459;-57
2021/06/23 13:36:52;;;;;;;8.37;7.60;;;;;;;;;;5034899;28;20603;-58
2021/06/23 13:39:20;;;;;;;8.20;7.40;;;;;;;;;;5034212;28;20488;-58
2021/06/23 13:41:47;;;;;;;9.77;8.10;;;;;;;;;;5034679;28;20521;-57
2021/06/23 13:44:14;;;;;;;10.30;8.07;;;;;;;;;;5035130;28;20448;-58
2021/06/23 13:46:43;;;;;;;9.80;8.90;;;;;;;;;;5035374;28;20445;-58
2021/06/23 13:49:10;;;;;;;9.73;8.80;;;;;;;;;;5035002;28;20484;-58
2021/06/23 13:51:37;;;;;;;9.30;8.17;;;;;;;;;;5035278;28;20490;-57
2021/06/23 13:54:05;;;;;;;10.43;8.67;;;;;;;;;;5034781;28;20446;-58
2021/06/23 13:56:32;;;;;;;10.93;9.80;;;;;;;;;;5034773;28;20445;-57
2021/06/23 13:58:59;;;;;;;8.87;8.17;;;;;;;;;;5034975;28;20449;-58
2021/06/23 14:01:27;;;;;;;9.63;8.83;;;;;;;;;;5034931;28;20469;-56
2021/06/23 14:03:55;;;;;;;9.33;8.43;;;;;;;;;;5034717;28;20454;-59
2021/06/23 14:06:23;;;;;;;11.13;9.57;;;;;;;;;;5035052;28;20449;-57
2021/06/23 14:08:50;;;;;;;11.93;10.50;;;;;;;;;;5035843;28;20449;-57
2021/06/23 14:11:18;;;;;;;12.10;10.30;;;;;;;;;;5034771;28;20456;-57
2021/06/23 14:13:45;;;;;;;10.87;9.90;;;;;;;;;;5035282;28;20440;-57
2021/06/23 14:16:12;;;;;;;11.60;10.60;;;;;;;;;;5034447;28;20945;-57
2021/06/23 14:18:39;;;;;;;10.53;9.53;;;;;;;;;;5034597;28;20510;-58
2021/06/23 14:21:09;;;;;;;10.50;9.50;;;;;;;;;;5035180;28;20517;-57
2021/06/23 14:23:37;;;;;;;11.10;9.00;;;;;;;;;;5034549;28;20527;-57
2021/06/23 14:26:06;;;;;;;10.57;9.47;;;;;;;;;;5034235;28;20480;-57
2021/06/23 14:28:35;;;;;;;12.27;9.43;;;;;;;;;;5034397;28;20452;-59
2021/06/23 14:31:02;;;;;;;10.70;9.60;;;;;;;;;;5034270;28;20493;-58
2021/06/23 14:33:30;;;;;;;11.87;10.60;;;;;;;;;;5034524;28;20539;-58
2021/06/23 14:35:57;;;;;;;12.03;10.90;;;;;;;;;;5034232;28;20452;-58
2021/06/23 14:38:25;;;;;;;13.23;11.13;;;;;;;;;;5034292;28;20444;-57
2021/06/23 14:40:53;;;;;;;10.27;9.27;;;;;;;;;;5034275;28;20522;-58
2021/06/23 14:43:20;;;;;;;12.03;10.20;;;;;;;;;;5034163;28;20509;-58
2021/06/23 14:45:47;;;;;;;12.10;10.00;;;;;;;;;;5034018;28;20448;-57
2021/06/23 14:48:15;;;;;;;11.73;10.50;;;;;;;;;;5034327;28;20510;-58
2021/06/23 14:50:42;;;;;;;10.23;9.23;;;;;;;;;;5032677;28;20488;-58
2021/06/23 14:53:09;;;;;;;10.90;9.90;;;;;;;;;;5033640;28;20994;-58
2021/06/23 14:55:38;;;;;;;10.63;9.60;;;;;;;;;;5033943;28;20510;-58
2021/06/23 14:58:05;;;;;;;12.73;9.93;;;;;;;;;;5033348;28;20449;-57
2021/06/23 15:00:33;;;;;;;14.40;12.87;;;;;;;;;;5033984;28;20469;-58